sensor_id;sensor_type;location;lat;lon;timestamp;temperature;humidity
71801;HTU21D;59647;55.838;37.292;2023-03-01T00:00:54;-3.21;66.14
71801;HTU21D;59647;55.838;37.292;2023-03-01T00:03:25;-3.27;65.13
71801;HTU21D;59647;55.838;37.292;2023-03-01T00:05:55;-3.25;66.53
71801;HTU21D;59647;55.838;37.292;2023-03-01T00:08:20;-3.32;66.27
71801;HTU21D;59647;55.838;37.292;2023-03-01T00:10:46;-3.37;64.83
71801;HTU21D;59647;55.838;37.292;2023-03-01T00:13:12;-3.34;67.17
71801;HTU21D;59647;55.838;37.292;2023-03-01T00:15:39;-3.36;64.24
71801;HTU21D;59647;55.838;37.292;2023-03-01T00:18:05;-3.41;64.50
71801;HTU21D;59647;55.838;37.292;2023-03-01T00:20:32;-3.47;64.45
71801;HTU21D;59647;55.838;37.292;2023-03-01T00:22:57;-3.51;63.97
71801;HTU21D;59647;55.838;37.292;2023-03-01T00:25:23;-3.56;64.82
71801;HTU21D;59647;55.838;37.292;2023-03-01T00:27:49;-3.62;63.36
71801;HTU21D;59647;55.838;37.292;2023-03-01T00:30:15;-3.64;65.87
71801;HTU21D;59647;55.838;37.292;2023-03-01T00:32:41;-3.65;65.57
71801;HTU21D;59647;55.838;37.292;2023-03-01T00:35:07;-3.68;64.26
71801;HTU21D;59647;55.838;37.292;2023-03-01T00:37:33;-3.64;65.37
71801;HTU21D;59647;55.838;37.292;2023-03-01T00:39:59;-3.64;67.14
71801;HTU21D;59647;55.838;37.292;2023-03-01T00:42:24;-3.64;66.64
71801;HTU21D;59647;55.838;37.292;2023-03-01T00:44:50;-3.63;66.53
71801;HTU21D;59647;55.838;37.292;2023-03-01T00:47:16;-3.66;66.48
71801;HTU21D;59647;55.838;37.292;2023-03-01T00:49:43;-3.65;68.26
71801;HTU21D;59647;55.838;37.292;2023-03-01T00:52:09;-3.63;68.68
71801;HTU21D;59647;55.838;37.292;2023-03-01T00:54:35;-3.64;65.83
71801;HTU21D;59647;55.838;37.292;2023-03-01T00:57:00;-3.63;68.23
71801;HTU21D;59647;55.838;37.292;2023-03-01T00:59:26;-3.65;68.02
71801;HTU21D;59647;55.838;37.292;2023-03-01T01:01:52;-3.67;68.47
71801;HTU21D;59647;55.838;37.292;2023-03-01T01:04:18;-3.69;68.30
71801;HTU21D;59647;55.838;37.292;2023-03-01T01:06:45;-3.66;67.81
71801;HTU21D;59647;55.838;37.292;2023-03-01T01:09:14;-3.69;68.36
71801;HTU21D;59647;55.838;37.292;2023-03-01T01:11:48;-3.68;69.04
71801;HTU21D;59647;55.838;37.292;2023-03-01T01:14:15;-3.74;69.09
71801;HTU21D;59647;55.838;37.292;2023-03-01T01:16:41;-3.68;70.11
71801;HTU21D;59647;55.838;37.292;2023-03-01T01:19:07;-3.74;68.63
71801;HTU21D;59647;55.838;37.292;2023-03-01T01:21:33;-3.81;69.54
71801;HTU21D;59647;55.838;37.292;2023-03-01T01:23:59;-3.75;70.17
71801;HTU21D;59647;55.838;37.292;2023-03-01T01:26:28;-3.72;70.90
71801;HTU21D;59647;55.838;37.292;2023-03-01T01:28:54;-3.75;70.29
71801;HTU21D;59647;55.838;37.292;2023-03-01T01:31:21;-3.74;70.81
71801;HTU21D;59647;55.838;37.292;2023-03-01T01:33:50;-3.71;70.77
71801;HTU21D;59647;55.838;37.292;2023-03-01T01:36:16;-3.72;70.74
71801;HTU21D;59647;55.838;37.292;2023-03-01T01:38:42;-3.72;70.43
71801;HTU21D;59647;55.838;37.292;2023-03-01T01:41:09;-3.67;70.88
71801;HTU21D;59647;55.838;37.292;2023-03-01T01:47:02;-3.75;70.23
71801;HTU21D;59647;55.838;37.292;2023-03-01T01:49:31;-3.75;70.61
71801;HTU21D;59647;55.838;37.292;2023-03-01T01:52:11;-3.75;70.68
71801;HTU21D;59647;55.838;37.292;2023-03-01T01:57:15;-3.81;70.26
71801;HTU21D;59647;55.838;37.292;2023-03-01T01:59:45;-3.90;71.01
71801;HTU21D;59647;55.838;37.292;2023-03-01T02:02:11;-3.91;71.56
71801;HTU21D;59647;55.838;37.292;2023-03-01T02:04:38;-3.86;72.32
71801;HTU21D;59647;55.838;37.292;2023-03-01T02:07:17;-3.84;71.75
71801;HTU21D;59647;55.838;37.292;2023-03-01T02:09:47;-3.91;72.09
71801;HTU21D;59647;55.838;37.292;2023-03-01T02:12:19;-3.87;71.80
71801;HTU21D;59647;55.838;37.292;2023-03-01T02:14:45;-3.93;71.36
71801;HTU21D;59647;55.838;37.292;2023-03-01T02:17:16;-3.94;72.04
71801;HTU21D;59647;55.838;37.292;2023-03-01T02:20:14;-3.91;72.56
71801;HTU21D;59647;55.838;37.292;2023-03-01T02:22:43;-3.93;72.18
71801;HTU21D;59647;55.838;37.292;2023-03-01T02:30:45;-4.02;71.91
71801;HTU21D;59647;55.838;37.292;2023-03-01T02:33:34;-4.09;72.35
71801;HTU21D;59647;55.838;37.292;2023-03-01T02:36:05;-4.12;73.29
71801;HTU21D;59647;55.838;37.292;2023-03-01T02:38:32;-4.14;72.90
71801;HTU21D;59647;55.838;37.292;2023-03-01T02:40:58;-4.23;72.26
71801;HTU21D;59647;55.838;37.292;2023-03-01T02:43:29;-4.24;73.71
71801;HTU21D;59647;55.838;37.292;2023-03-01T02:45:59;-4.20;73.97
71801;HTU21D;59647;55.838;37.292;2023-03-01T02:48:25;-4.21;73.51
71801;HTU21D;59647;55.838;37.292;2023-03-01T02:53:39;-4.29;74.28
71801;HTU21D;59647;55.838;37.292;2023-03-01T02:56:07;-4.23;73.98
71801;HTU21D;59647;55.838;37.292;2023-03-01T02:58:41;-4.28;73.57
71801;HTU21D;59647;55.838;37.292;2023-03-01T03:01:12;-4.35;74.08
71801;HTU21D;59647;55.838;37.292;2023-03-01T03:03:41;-4.37;74.15
71801;HTU21D;59647;55.838;37.292;2023-03-01T03:06:07;-4.41;73.75
71801;HTU21D;59647;55.838;37.292;2023-03-01T03:08:33;-4.37;74.59
71801;HTU21D;59647;55.838;37.292;2023-03-01T03:10:59;-4.40;74.57
71801;HTU21D;59647;55.838;37.292;2023-03-01T03:13:25;-4.43;74.38
71801;HTU21D;59647;55.838;37.292;2023-03-01T03:15:55;-4.42;74.67
71801;HTU21D;59647;55.838;37.292;2023-03-01T03:18:22;-4.42;74.65
71801;HTU21D;59647;55.838;37.292;2023-03-01T03:20:52;-4.45;75.54
71801;HTU21D;59647;55.838;37.292;2023-03-01T03:23:22;-4.48;75.01
71801;HTU21D;59647;55.838;37.292;2023-03-01T03:25:49;-4.48;75.32
71801;HTU21D;59647;55.838;37.292;2023-03-01T03:28:15;-4.48;75.36
71801;HTU21D;59647;55.838;37.292;2023-03-01T03:30:42;-4.52;75.61
71801;HTU21D;59647;55.838;37.292;2023-03-01T03:33:10;-4.56;75.76
71801;HTU21D;59647;55.838;37.292;2023-03-01T03:35:43;-4.54;75.11
71801;HTU21D;59647;55.838;37.292;2023-03-01T03:38:11;-4.53;75.76
71801;HTU21D;59647;55.838;37.292;2023-03-01T03:40:48;-4.54;75.73
71801;HTU21D;59647;55.838;37.292;2023-03-01T03:43:19;-4.52;75.57
71801;HTU21D;59647;55.838;37.292;2023-03-01T03:45:46;-4.55;75.36
71801;HTU21D;59647;55.838;37.292;2023-03-01T03:48:13;-4.57;75.66
71801;HTU21D;59647;55.838;37.292;2023-03-01T03:50:40;-4.56;75.73
71801;HTU21D;59647;55.838;37.292;2023-03-01T03:53:10;-4.56;75.75
71801;HTU21D;59647;55.838;37.292;2023-03-01T03:55:36;-4.55;75.77
71801;HTU21D;59647;55.838;37.292;2023-03-01T03:58:08;-4.57;75.76
71801;HTU21D;59647;55.838;37.292;2023-03-01T04:00:43;-4.52;76.23
71801;HTU21D;59647;55.838;37.292;2023-03-01T04:03:09;-4.54;75.29
71801;HTU21D;59647;55.838;37.292;2023-03-01T04:05:37;-4.59;75.29
71801;HTU21D;59647;55.838;37.292;2023-03-01T04:08:03;-4.60;76.36
71801;HTU21D;59647;55.838;37.292;2023-03-01T04:10:30;-4.59;75.82
71801;HTU21D;59647;55.838;37.292;2023-03-01T04:12:57;-4.65;75.92
71801;HTU21D;59647;55.838;37.292;2023-03-01T04:15:23;-4.63;76.34
71801;HTU21D;59647;55.838;37.292;2023-03-01T04:17:51;-4.67;75.91
71801;HTU21D;59647;55.838;37.292;2023-03-01T04:20:22;-4.64;76.16
71801;HTU21D;59647;55.838;37.292;2023-03-01T04:23:07;-4.63;76.35
71801;HTU21D;59647;55.838;37.292;2023-03-01T04:25:44;-4.61;76.34
71801;HTU21D;59647;55.838;37.292;2023-03-01T04:28:10;-4.61;76.27
71801;HTU21D;59647;55.838;37.292;2023-03-01T04:30:38;-4.64;75.82
71801;HTU21D;59647;55.838;37.292;2023-03-01T04:33:08;-4.61;75.58
71801;HTU21D;59647;55.838;37.292;2023-03-01T04:35:35;-4.65;76.08
71801;HTU21D;59647;55.838;37.292;2023-03-01T04:38:02;-4.71;76.08
71801;HTU21D;59647;55.838;37.292;2023-03-01T04:40:28;-4.70;76.80
71801;HTU21D;59647;55.838;37.292;2023-03-01T04:42:53;-4.63;76.44
71801;HTU21D;59647;55.838;37.292;2023-03-01T04:45:19;-4.60;76.60
71801;HTU21D;59647;55.838;37.292;2023-03-01T04:47:46;-4.52;76.28
71801;HTU21D;59647;55.838;37.292;2023-03-01T04:50:17;-4.51;75.80
71801;HTU21D;59647;55.838;37.292;2023-03-01T04:52:46;-4.45;76.21
71801;HTU21D;59647;55.838;37.292;2023-03-01T04:55:12;-4.42;76.01
71801;HTU21D;59647;55.838;37.292;2023-03-01T04:57:39;-4.40;75.79
71801;HTU21D;59647;55.838;37.292;2023-03-01T05:00:09;-4.36;76.04
71801;HTU21D;59647;55.838;37.292;2023-03-01T05:03:05;-4.42;75.83
71801;HTU21D;59647;55.838;37.292;2023-03-01T05:05:33;-4.42;75.78
71801;HTU21D;59647;55.838;37.292;2023-03-01T05:08:03;-4.41;76.05
71801;HTU21D;59647;55.838;37.292;2023-03-01T05:10:31;-4.42;75.44
71801;HTU21D;59647;55.838;37.292;2023-03-01T05:12:58;-4.41;75.29
71801;HTU21D;59647;55.838;37.292;2023-03-01T05:15:26;-4.45;75.07
71801;HTU21D;59647;55.838;37.292;2023-03-01T05:17:54;-4.42;75.66
71801;HTU21D;59647;55.838;37.292;2023-03-01T05:20:21;-4.39;75.54
71801;HTU21D;59647;55.838;37.292;2023-03-01T05:22:56;-4.39;75.20
71801;HTU21D;59647;55.838;37.292;2023-03-01T05:25:22;-4.41;75.28
71801;HTU21D;59647;55.838;37.292;2023-03-01T05:27:48;-4.35;75.79
71801;HTU21D;59647;55.838;37.292;2023-03-01T05:30:14;-4.30;75.56
71801;HTU21D;59647;55.838;37.292;2023-03-01T05:32:46;-4.29;75.47
71801;HTU21D;59647;55.838;37.292;2023-03-01T05:35:13;-4.30;75.71
71801;HTU21D;59647;55.838;37.292;2023-03-01T05:37:44;-4.16;75.58
71801;HTU21D;59647;55.838;37.292;2023-03-01T05:40:12;-4.08;75.40
71801;HTU21D;59647;55.838;37.292;2023-03-01T05:42:45;-3.98;74.35
71801;HTU21D;59647;55.838;37.292;2023-03-01T05:45:12;-3.98;74.59
71801;HTU21D;59647;55.838;37.292;2023-03-01T05:47:43;-3.92;74.41
71801;HTU21D;59647;55.838;37.292;2023-03-01T05:50:14;-3.83;73.99
71801;HTU21D;59647;55.838;37.292;2023-03-01T05:52:46;-3.80;73.78
71801;HTU21D;59647;55.838;37.292;2023-03-01T05:55:17;-3.75;72.73
71801;HTU21D;59647;55.838;37.292;2023-03-01T05:57:44;-3.76;72.77
71801;HTU21D;59647;55.838;37.292;2023-03-01T06:00:11;-3.62;73.90
71801;HTU21D;59647;55.838;37.292;2023-03-01T06:02:40;-3.50;73.35
71801;HTU21D;59647;55.838;37.292;2023-03-01T06:05:07;-3.38;73.04
71801;HTU21D;59647;55.838;37.292;2023-03-01T06:07:34;-3.27;71.13
71801;HTU21D;59647;55.838;37.292;2023-03-01T06:10:01;-3.21;71.67
71801;HTU21D;59647;55.838;37.292;2023-03-01T06:12:32;-3.17;70.86
71801;HTU21D;59647;55.838;37.292;2023-03-01T06:14:59;-3.17;70.75
71801;HTU21D;59647;55.838;37.292;2023-03-01T06:17:25;-3.15;70.62
71801;HTU21D;59647;55.838;37.292;2023-03-01T06:19:50;-3.08;71.35
71801;HTU21D;59647;55.838;37.292;2023-03-01T06:22:16;-3.07;70.46
71801;HTU21D;59647;55.838;37.292;2023-03-01T06:24:42;-3.11;70.26
71801;HTU21D;59647;55.838;37.292;2023-03-01T06:27:08;-3.04;70.26
71801;HTU21D;59647;55.838;37.292;2023-03-01T06:29:34;-2.96;69.99
71801;HTU21D;59647;55.838;37.292;2023-03-01T06:31:59;-2.94;70.19
71801;HTU21D;59647;55.838;37.292;2023-03-01T06:34:25;-2.80;70.55
71801;HTU21D;59647;55.838;37.292;2023-03-01T06:36:51;-2.66;70.16
71801;HTU21D;59647;55.838;37.292;2023-03-01T06:39:17;-2.54;71.17
71801;HTU21D;59647;55.838;37.292;2023-03-01T06:41:44;-2.50;69.94
71801;HTU21D;59647;55.838;37.292;2023-03-01T06:44:09;-2.46;69.69
71801;HTU21D;59647;55.838;37.292;2023-03-01T06:46:35;-2.35;70.60
71801;HTU21D;59647;55.838;37.292;2023-03-01T06:49:02;-2.36;68.53
71801;HTU21D;59647;55.838;37.292;2023-03-01T06:51:30;-2.39;69.87
71801;HTU21D;59647;55.838;37.292;2023-03-01T06:53:56;-2.46;68.39
71801;HTU21D;59647;55.838;37.292;2023-03-01T06:56:21;-2.51;69.36
71801;HTU21D;59647;55.838;37.292;2023-03-01T06:58:47;-2.56;69.41
71801;HTU21D;59647;55.838;37.292;2023-03-01T07:01:13;-2.62;70.36
71801;HTU21D;59647;55.838;37.292;2023-03-01T07:03:39;-2.52;69.18
71801;HTU21D;59647;55.838;37.292;2023-03-01T07:06:05;-2.35;68.60
71801;HTU21D;59647;55.838;37.292;2023-03-01T07:08:31;-2.15;68.76
71801;HTU21D;59647;55.838;37.292;2023-03-01T07:10:57;-1.92;68.33
71801;HTU21D;59647;55.838;37.292;2023-03-01T07:13:24;-1.79;67.16
71801;HTU21D;59647;55.838;37.292;2023-03-01T07:15:49;-1.64;69.35
71801;HTU21D;59647;55.838;37.292;2023-03-01T07:18:15;-1.65;70.51
71801;HTU21D;59647;55.838;37.292;2023-03-01T07:20:41;-1.93;66.85
71801;HTU21D;59647;55.838;37.292;2023-03-01T07:23:07;-1.78;68.65
71801;HTU21D;59647;55.838;37.292;2023-03-01T07:25:33;-1.63;67.71
71801;HTU21D;59647;55.838;37.292;2023-03-01T07:27:59;-1.54;66.64
71801;HTU21D;59647;55.838;37.292;2023-03-01T07:30:25;-1.40;68.57
71801;HTU21D;59647;55.838;37.292;2023-03-01T07:32:53;-1.24;68.43
71801;HTU21D;59647;55.838;37.292;2023-03-01T07:35:19;-1.19;64.83
71801;HTU21D;59647;55.838;37.292;2023-03-01T07:37:44;-1.11;66.29
71801;HTU21D;59647;55.838;37.292;2023-03-01T07:40:11;-1.03;65.97
71801;HTU21D;59647;55.838;37.292;2023-03-01T07:42:38;-1.02;65.08
71801;HTU21D;59647;55.838;37.292;2023-03-01T07:45:05;-1.00;68.23
71801;HTU21D;59647;55.838;37.292;2023-03-01T07:47:31;-1.11;65.09
71801;HTU21D;59647;55.838;37.292;2023-03-01T07:49:57;-1.19;63.55
71801;HTU21D;59647;55.838;37.292;2023-03-01T07:52:23;-1.25;65.82
71801;HTU21D;59647;55.838;37.292;2023-03-01T07:54:49;-1.10;65.50
71801;HTU21D;59647;55.838;37.292;2023-03-01T07:57:15;-1.04;64.83
71801;HTU21D;59647;55.838;37.292;2023-03-01T07:59:41;-0.82;64.34
71801;HTU21D;59647;55.838;37.292;2023-03-01T08:02:09;-0.67;65.67
71801;HTU21D;59647;55.838;37.292;2023-03-01T08:04:35;-0.45;65.88
71801;HTU21D;59647;55.838;37.292;2023-03-01T08:07:01;-0.31;62.39
71801;HTU21D;59647;55.838;37.292;2023-03-01T08:09:26;-0.23;62.30
71801;HTU21D;59647;55.838;37.292;2023-03-01T08:11:52;-0.29;60.83
71801;HTU21D;59647;55.838;37.292;2023-03-01T08:14:19;-0.26;62.66
71801;HTU21D;59647;55.838;37.292;2023-03-01T08:16:49;-0.22;62.77
71801;HTU21D;59647;55.838;37.292;2023-03-01T08:19:14;-0.08;63.94
71801;HTU21D;59647;55.838;37.292;2023-03-01T08:21:40;-0.06;60.21
71801;HTU21D;59647;55.838;37.292;2023-03-01T08:24:07;-0.02;62.08
71801;HTU21D;59647;55.838;37.292;2023-03-01T08:26:33;0.07;62.56
71801;HTU21D;59647;55.838;37.292;2023-03-01T08:29:00;0.16;60.06
71801;HTU21D;59647;55.838;37.292;2023-03-01T08:31:35;0.09;59.96
71801;HTU21D;59647;55.838;37.292;2023-03-01T08:34:05;0.15;61.62
71801;HTU21D;59647;55.838;37.292;2023-03-01T08:36:35;0.24;62.02
71801;HTU21D;59647;55.838;37.292;2023-03-01T08:39:03;0.33;60.48
71801;HTU21D;59647;55.838;37.292;2023-03-01T08:41:29;0.40;60.96
71801;HTU21D;59647;55.838;37.292;2023-03-01T08:43:55;0.52;59.06
71801;HTU21D;59647;55.838;37.292;2023-03-01T08:46:35;0.53;60.37
71801;HTU21D;59647;55.838;37.292;2023-03-01T08:49:06;0.58;60.90
71801;HTU21D;59647;55.838;37.292;2023-03-01T08:51:32;0.78;60.27
71801;HTU21D;59647;55.838;37.292;2023-03-01T08:54:21;1.07;58.79
71801;HTU21D;59647;55.838;37.292;2023-03-01T08:56:48;1.22;59.98
71801;HTU21D;59647;55.838;37.292;2023-03-01T08:59:15;1.32;55.97
71801;HTU21D;59647;55.838;37.292;2023-03-01T09:01:41;1.47;61.82
71801;HTU21D;59647;55.838;37.292;2023-03-01T09:04:14;1.58;58.22
71801;HTU21D;59647;55.838;37.292;2023-03-01T09:06:39;1.47;56.85
71801;HTU21D;59647;55.838;37.292;2023-03-01T09:09:06;1.55;54.32
71801;HTU21D;59647;55.838;37.292;2023-03-01T09:11:33;1.62;55.70
71801;HTU21D;59647;55.838;37.292;2023-03-01T09:13:59;1.68;55.48
71801;HTU21D;59647;55.838;37.292;2023-03-01T09:16:25;1.77;54.57
71801;HTU21D;59647;55.838;37.292;2023-03-01T09:18:54;1.67;54.15
71801;HTU21D;59647;55.838;37.292;2023-03-01T09:21:22;1.78;56.51
71801;HTU21D;59647;55.838;37.292;2023-03-01T09:23:49;1.95;56.05
71801;HTU21D;59647;55.838;37.292;2023-03-01T09:26:17;2.13;55.38
71801;HTU21D;59647;55.838;37.292;2023-03-01T09:28:45;2.07;54.04
71801;HTU21D;59647;55.838;37.292;2023-03-01T09:31:12;2.09;53.48
71801;HTU21D;59647;55.838;37.292;2023-03-01T09:33:39;2.19;50.97
71801;HTU21D;59647;55.838;37.292;2023-03-01T09:36:11;2.20;50.35
71801;HTU21D;59647;55.838;37.292;2023-03-01T09:38:37;2.14;52.02
71801;HTU21D;59647;55.838;37.292;2023-03-01T09:41:10;2.25;54.09
71801;HTU21D;59647;55.838;37.292;2023-03-01T09:43:49;2.37;53.24
71801;HTU21D;59647;55.838;37.292;2023-03-01T09:46:20;2.41;52.98
71801;HTU21D;59647;55.838;37.292;2023-03-01T09:48:56;2.85;51.56
71801;HTU21D;59647;55.838;37.292;2023-03-01T09:51:27;2.70;52.34
71801;HTU21D;59647;55.838;37.292;2023-03-01T09:53:55;2.67;53.12
71801;HTU21D;59647;55.838;37.292;2023-03-01T09:56:53;2.57;51.08
71801;HTU21D;59647;55.838;37.292;2023-03-01T10:02:28;2.67;49.83
71801;HTU21D;59647;55.838;37.292;2023-03-01T10:10:34;2.31;50.40
71801;HTU21D;59647;55.838;37.292;2023-03-01T10:13:13;2.26;49.85
71801;HTU21D;59647;55.838;37.292;2023-03-01T10:15:45;2.40;51.39
71801;HTU21D;59647;55.838;37.292;2023-03-01T10:18:17;2.23;50.76
71801;HTU21D;59647;55.838;37.292;2023-03-01T10:21:00;2.49;54.91
71801;HTU21D;59647;55.838;37.292;2023-03-01T10:23:29;2.64;50.43
71801;HTU21D;59647;55.838;37.292;2023-03-01T10:31:25;2.40;55.24
71801;HTU21D;59647;55.838;37.292;2023-03-01T10:33:54;2.38;50.59
71801;HTU21D;59647;55.838;37.292;2023-03-01T10:36:24;2.34;53.63
71801;HTU21D;59647;55.838;37.292;2023-03-01T10:38:55;2.46;50.88
71801;HTU21D;59647;55.838;37.292;2023-03-01T10:41:24;2.56;48.73
71801;HTU21D;59647;55.838;37.292;2023-03-01T10:43:58;2.69;47.29
71801;HTU21D;59647;55.838;37.292;2023-03-01T10:46:28;2.93;49.87
71801;HTU21D;59647;55.838;37.292;2023-03-01T10:51:46;2.72;49.56
71801;HTU21D;59647;55.838;37.292;2023-03-01T10:54:31;2.94;52.96
71801;HTU21D;59647;55.838;37.292;2023-03-01T10:57:03;2.57;45.38
71801;HTU21D;59647;55.838;37.292;2023-03-01T10:59:37;2.37;49.06
71801;HTU21D;59647;55.838;37.292;2023-03-01T11:02:23;2.13;49.53
71801;HTU21D;59647;55.838;37.292;2023-03-01T11:05:20;2.08;50.79
71801;HTU21D;59647;55.838;37.292;2023-03-01T11:07:48;2.16;51.26
71801;HTU21D;59647;55.838;37.292;2023-03-01T11:10:21;2.00;49.66
71801;HTU21D;59647;55.838;37.292;2023-03-01T11:12:47;1.96;52.80
71801;HTU21D;59647;55.838;37.292;2023-03-01T11:15:22;1.99;52.62
71801;HTU21D;59647;55.838;37.292;2023-03-01T11:17:48;2.27;50.79
71801;HTU21D;59647;55.838;37.292;2023-03-01T11:20:45;2.45;48.12
71801;HTU21D;59647;55.838;37.292;2023-03-01T11:23:13;2.59;49.11
71801;HTU21D;59647;55.838;37.292;2023-03-01T11:25:43;2.49;48.18
71801;HTU21D;59647;55.838;37.292;2023-03-01T11:28:14;2.42;53.51
71801;HTU21D;59647;55.838;37.292;2023-03-01T11:30:57;2.49;51.81
71801;HTU21D;59647;55.838;37.292;2023-03-01T11:33:37;2.31;47.97
71801;HTU21D;59647;55.838;37.292;2023-03-01T11:36:06;2.50;49.51
71801;HTU21D;59647;55.838;37.292;2023-03-01T11:38:35;2.52;48.02
71801;HTU21D;59647;55.838;37.292;2023-03-01T11:51:20;2.68;47.84
71801;HTU21D;59647;55.838;37.292;2023-03-01T11:54:19;2.65;52.16
71801;HTU21D;59647;55.838;37.292;2023-03-01T12:00:14;2.40;48.70
71801;HTU21D;59647;55.838;37.292;2023-03-01T12:08:34;2.25;48.52
71801;HTU21D;59647;55.838;37.292;2023-03-01T12:40:42;1.51;52.13
71801;HTU21D;59647;55.838;37.292;2023-03-01T12:43:42;1.38;51.98
71801;HTU21D;59647;55.838;37.292;2023-03-01T12:51:30;1.17;51.14
71801;HTU21D;59647;55.838;37.292;2023-03-01T12:53:58;1.10;52.73
71801;HTU21D;59647;55.838;37.292;2023-03-01T12:56:32;0.97;53.06
71801;HTU21D;59647;55.838;37.292;2023-03-01T12:59:07;0.82;53.91
71801;HTU21D;59647;55.838;37.292;2023-03-01T13:01:52;0.94;54.87
71801;HTU21D;59647;55.838;37.292;2023-03-01T13:10:01;0.45;54.00
71801;HTU21D;59647;55.838;37.292;2023-03-01T13:17:52;0.61;55.16
71801;HTU21D;59647;55.838;37.292;2023-03-01T13:20:26;0.67;55.50
71801;HTU21D;59647;55.838;37.292;2023-03-01T13:26:10;0.47;54.65
71801;HTU21D;59647;55.838;37.292;2023-03-01T13:34:00;0.30;56.52
71801;HTU21D;59647;55.838;37.292;2023-03-01T13:47:00;0.40;59.28
71801;HTU21D;59647;55.838;37.292;2023-03-01T13:49:31;0.37;58.26
71801;HTU21D;59647;55.838;37.292;2023-03-01T13:52:02;0.43;58.70
71801;HTU21D;59647;55.838;37.292;2023-03-01T13:54:32;0.23;56.97
71801;HTU21D;59647;55.838;37.292;2023-03-01T13:57:00;0.21;58.96
71801;HTU21D;59647;55.838;37.292;2023-03-01T13:59:27;0.08;59.57
71801;HTU21D;59647;55.838;37.292;2023-03-01T14:01:57;0.15;59.08
71801;HTU21D;59647;55.838;37.292;2023-03-01T14:04:32;0.22;60.18
71801;HTU21D;59647;55.838;37.292;2023-03-01T14:09:40;0.13;60.10
71801;HTU21D;59647;55.838;37.292;2023-03-01T14:15:12;-0.01;59.99
71801;HTU21D;59647;55.838;37.292;2023-03-01T14:20:30;-0.16;59.87
71801;HTU21D;59647;55.838;37.292;2023-03-01T14:23:00;-0.09;60.54
71801;HTU21D;59647;55.838;37.292;2023-03-01T14:25:29;-0.20;59.96
71801;HTU21D;59647;55.838;37.292;2023-03-01T14:28:00;-0.27;62.45
71801;HTU21D;59647;55.838;37.292;2023-03-01T14:30:34;-0.23;62.58
71801;HTU21D;59647;55.838;37.292;2023-03-01T14:33:03;-0.26;64.38
71801;HTU21D;59647;55.838;37.292;2023-03-01T14:35:35;-0.30;61.31
71801;HTU21D;59647;55.838;37.292;2023-03-01T14:38:01;-0.36;62.92
71801;HTU21D;59647;55.838;37.292;2023-03-01T14:40:30;-0.46;61.90
71801;HTU21D;59647;55.838;37.292;2023-03-01T14:42:59;-0.46;63.42
71801;HTU21D;59647;55.838;37.292;2023-03-01T14:45:28;-0.44;63.78
71801;HTU21D;59647;55.838;37.292;2023-03-01T14:47:55;-0.49;63.66
71801;HTU21D;59647;55.838;37.292;2023-03-01T14:50:29;-0.42;63.16
71801;HTU21D;59647;55.838;37.292;2023-03-01T14:53:01;-0.49;62.54
71801;HTU21D;59647;55.838;37.292;2023-03-01T14:55:34;-0.72;64.37
71801;HTU21D;59647;55.838;37.292;2023-03-01T14:58:06;-0.74;65.59
71801;HTU21D;59647;55.838;37.292;2023-03-01T15:00:35;-0.81;67.31
71801;HTU21D;59647;55.838;37.292;2023-03-01T15:03:12;-0.75;67.84
71801;HTU21D;59647;55.838;37.292;2023-03-01T15:05:40;-0.74;66.76
71801;HTU21D;59647;55.838;37.292;2023-03-01T15:08:19;-0.71;66.80
71801;HTU21D;59647;55.838;37.292;2023-03-01T15:11:17;-0.71;66.69
71801;HTU21D;59647;55.838;37.292;2023-03-01T15:13:43;-0.65;68.26
71801;HTU21D;59647;55.838;37.292;2023-03-01T15:16:14;-0.58;66.54
71801;HTU21D;59647;55.838;37.292;2023-03-01T15:18:51;-0.64;66.19
71801;HTU21D;59647;55.838;37.292;2023-03-01T15:23:55;-0.60;65.63
71801;HTU21D;59647;55.838;37.292;2023-03-01T15:26:24;-0.66;64.53
71801;HTU21D;59647;55.838;37.292;2023-03-01T15:28:53;-0.62;66.74
71801;HTU21D;59647;55.838;37.292;2023-03-01T15:31:36;-0.57;65.17
71801;HTU21D;59647;55.838;37.292;2023-03-01T15:34:22;-0.58;61.92
71801;HTU21D;59647;55.838;37.292;2023-03-01T15:36:50;-0.60;61.88
71801;HTU21D;59647;55.838;37.292;2023-03-01T15:47:48;-0.65;62.98
71801;HTU21D;59647;55.838;37.292;2023-03-01T15:50:32;-0.58;62.95
71801;HTU21D;59647;55.838;37.292;2023-03-01T15:53:05;-0.55;63.11
71801;HTU21D;59647;55.838;37.292;2023-03-01T15:55:36;-0.55;62.67
71801;HTU21D;59647;55.838;37.292;2023-03-01T15:58:20;-0.61;60.05
71801;HTU21D;59647;55.838;37.292;2023-03-01T16:00:47;-0.61;62.89
71801;HTU21D;59647;55.838;37.292;2023-03-01T16:03:14;-0.68;62.03
71801;HTU21D;59647;55.838;37.292;2023-03-01T16:05:48;-0.72;63.08
71801;HTU21D;59647;55.838;37.292;2023-03-01T16:08:14;-0.75;64.23
71801;HTU21D;59647;55.838;37.292;2023-03-01T16:10:40;-0.72;64.86
71801;HTU21D;59647;55.838;37.292;2023-03-01T16:13:07;-0.62;64.64
71801;HTU21D;59647;55.838;37.292;2023-03-01T16:15:33;-0.67;63.93
71801;HTU21D;59647;55.838;37.292;2023-03-01T16:18:03;-0.60;64.57
71801;HTU21D;59647;55.838;37.292;2023-03-01T16:20:31;-0.58;65.53
71801;HTU21D;59647;55.838;37.292;2023-03-01T16:23:01;-0.72;65.27
71801;HTU21D;59647;55.838;37.292;2023-03-01T16:25:28;-0.71;66.18
71801;HTU21D;59647;55.838;37.292;2023-03-01T16:27:55;-0.93;64.66
71801;HTU21D;59647;55.838;37.292;2023-03-01T16:30:22;-0.81;66.53
71801;HTU21D;59647;55.838;37.292;2023-03-01T16:32:49;-0.75;66.56
71801;HTU21D;59647;55.838;37.292;2023-03-01T16:35:17;-0.67;67.17
71801;HTU21D;59647;55.838;37.292;2023-03-01T16:37:44;-0.70;65.22
71801;HTU21D;59647;55.838;37.292;2023-03-01T16:40:24;-0.64;66.51
71801;HTU21D;59647;55.838;37.292;2023-03-01T16:42:53;-0.70;66.33
71801;HTU21D;59647;55.838;37.292;2023-03-01T16:45:19;-0.69;66.49
71801;HTU21D;59647;55.838;37.292;2023-03-01T16:47:45;-0.69;65.66
71801;HTU21D;59647;55.838;37.292;2023-03-01T16:50:11;-0.69;67.04
71801;HTU21D;59647;55.838;37.292;2023-03-01T16:52:37;-0.66;66.81
71801;HTU21D;59647;55.838;37.292;2023-03-01T16:55:05;-0.70;65.94
71801;HTU21D;59647;55.838;37.292;2023-03-01T16:57:33;-0.76;65.35
71801;HTU21D;59647;55.838;37.292;2023-03-01T16:59:59;-0.75;65.83
71801;HTU21D;59647;55.838;37.292;2023-03-01T17:02:25;-0.90;66.65
71801;HTU21D;59647;55.838;37.292;2023-03-01T17:04:53;-0.87;67.20
71801;HTU21D;59647;55.838;37.292;2023-03-01T17:07:19;-0.96;66.71
71801;HTU21D;59647;55.838;37.292;2023-03-01T17:09:45;-0.97;66.75
71801;HTU21D;59647;55.838;37.292;2023-03-01T17:12:14;-1.02;67.44
71801;HTU21D;59647;55.838;37.292;2023-03-01T17:14:41;-1.09;67.51
71801;HTU21D;59647;55.838;37.292;2023-03-01T17:17:08;-1.15;69.97
71801;HTU21D;59647;55.838;37.292;2023-03-01T17:19:35;-1.06;69.42
71801;HTU21D;59647;55.838;37.292;2023-03-01T17:22:05;-1.08;67.83
71801;HTU21D;59647;55.838;37.292;2023-03-01T17:24:33;-1.26;69.29
71801;HTU21D;59647;55.838;37.292;2023-03-01T17:26:59;-1.36;70.72
71801;HTU21D;59647;55.838;37.292;2023-03-01T17:29:25;-1.32;70.72
71801;HTU21D;59647;55.838;37.292;2023-03-01T17:31:51;-1.32;70.98
71801;HTU21D;59647;55.838;37.292;2023-03-01T17:34:22;-1.25;71.14